Time;durP1;ratioP1;P1;durP2;ratioP2;P2;SDS_P1;SDS_P2;PMS_P1;PMS_P2;Temp;Humidity;BMP_temperature;BMP_pressure;BME280_temperature;BME280_humidity;BME280_pressure;Samples;Min_cycle;Max_cycle;Signal;HPM_P1;HPM_P2
2022/03/28 00:02:00;;;;;;;7.50;3.08;;;9.90;75.30;;;;;;6278771;22;19995;-84
2022/03/28 00:04:25;;;;;;;7.78;3.83;;;9.90;74.40;;;;;;6277506;22;20076;-84
2022/03/28 00:06:51;;;;;;;7.47;3.70;;;9.90;74.50;;;;;;6306601;22;20068;-84
2022/03/28 00:09:17;;;;;;;8.98;3.58;;;9.80;74.60;;;;;;6307075;22;20564;-84
2022/03/28 00:11:42;;;;;;;9.50;3.55;;;9.80;74.90;;;;;;6280174;22;20434;-84
2022/03/28 00:14:08;;;;;;;8.70;3.60;;;9.80;74.80;;;;;;6279093;22;19999;-84
2022/03/28 00:16:34;;;;;;;13.18;3.85;;;9.80;74.60;;;;;;6306494;22;20003;-84
2022/03/28 00:19:00;;;;;;;8.45;3.70;;;9.70;74.40;;;;;;6279491;22;19999;-85
2022/03/28 00:21:26;;;;;;;9.30;3.50;;;9.70;74.50;;;;;;6277951;22;20029;-84
2022/03/28 00:23:52;;;;;;;10.32;3.53;;;9.60;74.60;;;;;;6277397;22;20346;-84
2022/03/28 00:26:18;;;;;;;7.55;3.25;;;9.60;75.10;;;;;;6278693;22;20010;-84
2022/03/28 00:28:44;;;;;;;8.55;3.03;;;9.60;75.00;;;;;;6278781;22;20022;-85
2022/03/28 00:31:10;;;;;;;7.60;3.63;;;9.60;75.20;;;;;;6278489;22;20375;-84
2022/03/28 00:33:36;;;;;;;8.60;3.80;;;9.50;74.90;;;;;;6311248;22;20011;-84
2022/03/28 00:36:02;;;;;;;8.10;3.25;;;9.50;75.40;;;;;;6279909;22;20000;-85
2022/03/28 00:38:28;;;;;;;8.32;3.95;;;9.50;75.30;;;;;;6305857;22;20078;-84
2022/03/28 00:40:53;;;;;;;12.70;3.92;;;9.40;75.20;;;;;;6305491;22;20366;-84
2022/03/28 00:43:19;;;;;;;7.53;3.28;;;9.40;75.20;;;;;;6304736;22;20425;-84
2022/03/28 00:45:45;;;;;;;8.52;3.38;;;9.40;75.50;;;;;;6277644;22;20426;-84
2022/03/28 00:48:12;;;;;;;8.75;3.40;;;9.30;75.60;;;;;;6277795;22;20448;-84
2022/03/28 00:50:38;;;;;;;8.90;3.53;;;9.30;75.30;;;;;;6277931;22;20113;-85
2022/03/28 00:53:05;;;;;;;9.40;3.08;;;9.30;75.40;;;;;;6277901;22;20051;-84
2022/03/28 00:55:32;;;;;;;10.85;3.25;;;9.30;75.30;;;;;;6306153;22;19999;-85
2022/03/28 00:57:58;;;;;;;9.90;3.67;;;9.40;75.30;;;;;;6278532;22;20075;-85
2022/03/28 01:00:23;;;;;;;9.48;3.63;;;9.30;75.20;;;;;;6278667;22;20034;-85
2022/03/28 01:02:50;;;;;;;7.50;3.50;;;9.30;74.80;;;;;;6277764;22;20336;-84
2022/03/28 01:05:16;;;;;;;8.80;3.53;;;9.30;74.60;;;;;;6276789;22;20007;-84
2022/03/28 01:07:42;;;;;;;10.68;4.20;;;9.30;74.60;;;;;;6304746;22;20086;-84
2022/03/28 01:10:10;;;;;;;7.72;3.45;;;9.20;74.90;;;;;;6305017;22;20052;-84
2022/03/28 01:12:37;;;;;;;9.18;3.60;;;9.20;75.20;;;;;;6305137;22;20022;-84
2022/03/28 01:15:04;;;;;;;11.52;4.05;;;9.20;75.40;;;;;;6304242;22;20006;-84
2022/03/28 01:20:14;;;;;;;7.38;3.05;;;9.20;75.50;;;;;;6304773;22;20084;-84
2022/03/28 01:22:40;;;;;;;10.32;3.90;;;9.10;76.00;;;;;;6277513;22;20086;-84
2022/03/28 01:25:08;;;;;;;8.20;3.35;;;9.10;75.60;;;;;;6303855;22;20092;-84
2022/03/28 01:27:37;;;;;;;8.43;3.15;;;9.00;75.60;;;;;;6304879;22;20065;-84
2022/03/28 01:30:07;;;;;;;8.40;3.45;;;9.00;75.70;;;;;;6277298;22;20038;-84
2022/03/28 01:32:33;;;;;;;8.77;3.67;;;9.00;75.60;;;;;;6277060;22;20023;-84
2022/03/28 01:34:58;;;;;;;10.48;3.70;;;8.90;76.00;;;;;;6304298;22;20422;-84
2022/03/28 01:37:24;;;;;;;9.65;4.00;;;8.90;76.10;;;;;;6277425;22;20096;-84
2022/03/28 01:39:50;;;;;;;8.75;3.35;;;8.90;76.50;;;;;;6277643;22;20004;-84
2022/03/28 01:42:15;;;;;;;9.25;3.45;;;8.80;76.70;;;;;;6276757;22;20014;-84
2022/03/28 01:44:41;;;;;;;10.35;3.45;;;8.80;76.60;;;;;;6276995;22;20356;-84
2022/03/28 01:47:07;;;;;;;11.02;4.35;;;8.80;76.90;;;;;;6276744;22;20089;-84
2022/03/28 01:49:33;;;;;;;7.22;3.00;;;8.80;77.10;;;;;;6276857;22;20018;-84
2022/03/28 01:51:59;;;;;;;10.75;4.22;;;8.80;77.30;;;;;;6277135;22;20089;-84
2022/03/28 01:54:25;;;;;;;10.00;4.03;;;8.70;77.00;;;;;;6304397;22;20000;-84
2022/03/28 01:56:51;;;;;;;10.02;3.67;;;8.80;77.20;;;;;;6275902;22;20003;-84
2022/03/28 01:59:17;;;;;;;7.97;3.17;;;8.70;77.40;;;;;;6276587;22;20007;-84
2022/03/28 02:01:42;;;;;;;9.13;3.63;;;8.70;77.70;;;;;;6303675;22;19999;-84
2022/03/28 02:04:08;;;;;;;9.00;3.60;;;8.60;77.60;;;;;;6276549;22;20080;-84
2022/03/28 02:06:34;;;;;;;9.55;3.92;;;8.60;77.60;;;;;;6277057;22;20015;-90
2022/03/28 02:09:00;;;;;;;11.85;3.72;;;8.60;77.80;;;;;;6340760;22;20002;-90
2022/03/28 02:11:28;;;;;;;10.18;4.35;;;8.60;77.80;;;;;;6342865;22;20005;-89
2022/03/28 02:13:54;;;;;;;9.18;3.53;;;8.50;78.00;;;;;;6342784;22;19994;-90
2022/03/28 02:16:26;;;;;;;7.28;3.30;;;8.50;78.10;;;;;;6337684;22;20108;-90
2022/03/28 02:18:52;;;;;;;;;;;8.40;78.30;;;;;;6312249;22;20068;-90
2022/03/28 02:21:21;;;;;;;11.00;3.30;;;8.40;78.10;;;;;;6311340;22;20446;-90
2022/03/28 02:23:57;;;;;;;7.95;3.50;;;8.40;78.30;;;;;;6340279;22;20009;-90
2022/03/28 02:26:23;;;;;;;9.40;3.80;;;8.40;78.70;;;;;;6312161;22;20003;-89
2022/03/28 02:28:52;;;;;;;10.18;3.60;;;8.40;78.70;;;;;;6311951;22;20025;-90
2022/03/28 02:31:18;;;;;;;8.57;2.95;;;8.40;79.10;;;;;;6339054;22;19999;-89
2022/03/28 02:33:44;;;;;;;9.75;3.65;;;8.30;78.60;;;;;;6339889;22;19995;-89
2022/03/28 02:36:13;;;;;;;9.00;3.45;;;8.20;78.80;;;;;;6311038;22;20010;-90
2022/03/28 02:38:39;;;;;;;8.73;3.53;;;8.30;78.80;;;;;;6309227;22;20089;-89
2022/03/28 02:41:04;;;;;;;12.77;4.22;;;8.20;79.00;;;;;;6310315;22;20010;-89
2022/03/28 02:43:33;;;;;;;11.80;3.33;;;8.20;78.80;;;;;;6310630;22;20210;-89
2022/03/28 02:46:01;;;;;;;10.57;3.05;;;8.10;79.10;;;;;;6310120;22;20491;-90
2022/03/28 02:48:29;;;;;;;8.75;3.70;;;8.10;79.60;;;;;;6309954;22;20003;-89
2022/03/28 02:50:55;;;;;;;9.93;3.92;;;8.10;79.80;;;;;;6310686;22;20443;-90
2022/03/28 02:53:23;;;;;;;8.43;3.40;;;8.00;79.60;;;;;;6335566;22;19998;-90
2022/03/28 02:55:53;;;;;;;7.50;3.22;;;8.00;79.80;;;;;;6309892;22;20010;-89
2022/03/28 02:58:25;;;;;;;7.00;3.38;;;8.00;79.80;;;;;;6308247;22;20014;-90
2022/03/28 03:00:51;;;;;;;11.02;3.83;;;8.00;80.10;;;;;;6309855;22;20034;-89
2022/03/28 03:03:16;;;;;;;7.88;3.03;;;8.00;80.40;;;;;;6310171;22;20003;-89
2022/03/28 03:05:46;;;;;;;9.00;3.55;;;8.10;80.60;;;;;;6318280;22;20425;-89
2022/03/28 03:08:12;;;;;;;8.00;3.33;;;8.00;80.70;;;;;;6320453;22;20148;-90
2022/03/28 03:10:38;;;;;;;9.07;3.17;;;7.90;80.90;;;;;;6317104;22;20070;-89
2022/03/28 03:13:08;;;;;;;8.90;3.50;;;7.90;80.90;;;;;;6347958;22;20397;-89
2022/03/28 03:15:38;;;;;;;8.05;3.65;;;7.90;80.80;;;;;;6314661;22;19999;-89
2022/03/28 03:18:07;;;;;;;9.23;3.65;;;7.90;80.80;;;;;;6312845;22;20007;-89
2022/03/28 03:20:36;;;;;;;8.18;3.58;;;7.80;80.90;;;;;;6340556;22;20098;-89
2022/03/28 03:23:03;;;;;;;11.38;3.60;;;7.80;81.20;;;;;;6312563;22;20009;-89
2022/03/28 03:25:29;;;;;;;7.63;3.58;;;7.80;81.60;;;;;;6311938;22;20014;-89
2022/03/28 03:27:55;;;;;;;9.32;3.50;;;7.70;81.60;;;;;;6311789;22;20007;-89
2022/03/28 03:30:21;;;;;;;7.47;3.50;;;7.70;82.30;;;;;;6311978;22;20328;-89
2022/03/28 03:32:47;;;;;;;7.05;2.95;;;7.70;81.70;;;;;;6311797;22;20089;-89
2022/03/28 03:35:14;;;;;;;11.20;3.63;;;7.60;81.90;;;;;;6311358;22;20003;-89
2022/03/28 03:37:40;;;;;;;10.55;3.47;;;7.60;82.10;;;;;;6312048;22;20007;-89
2022/03/28 03:40:08;;;;;;;12.70;3.95;;;7.70;82.30;;;;;;6310960;22;20002;-89
2022/03/28 03:42:34;;;;;;;7.85;3.03;;;7.60;82.30;;;;;;6311690;22;20044;-89
2022/03/28 03:45:04;;;;;;;7.72;3.40;;;7.60;82.40;;;;;;6339025;22;20056;-90
2022/03/28 03:47:32;;;;;;;8.68;3.60;;;7.50;82.30;;;;;;6311942;22;20009;-89
2022/03/28 03:49:58;;;;;;;7.65;3.17;;;7.40;82.40;;;;;;6311676;22;20551;-89
2022/03/28 03:52:24;;;;;;;6.20;2.42;;;7.40;83.40;;;;;;6311372;22;20034;-89
2022/03/28 03:54:50;;;;;;;11.20;3.83;;;7.20;83.50;;;;;;6310925;22;20007;-89
2022/03/28 03:57:16;;;;;;;9.77;3.50;;;7.20;84.20;;;;;;6311522;22;20002;-89
2022/03/28 03:59:42;;;;;;;9.27;3.80;;;7.20;84.60;;;;;;6310998;22;20072;-90
2022/03/28 04:02:09;;;;;;;11.15;3.28;;;7.10;84.80;;;;;;6311611;22;20002;-89
2022/03/28 04:04:34;;;;;;;8.73;3.33;;;7.10;84.90;;;;;;6311137;22;20636;-89
2022/03/28 04:07:00;;;;;;;6.93;3.22;;;7.10;85.00;;;;;;6310604;22;20006;-90
2022/03/28 04:09:26;;;;;;;10.30;4.07;;;7.10;85.10;;;;;;6311572;22;19995;-89
2022/03/28 04:11:54;;;;;;;6.72;2.88;;;7.10;85.20;;;;;;6338773;22;19995;-89
2022/03/28 04:14:22;;;;;;;7.75;3.22;;;7.10;85.10;;;;;;6310270;22;20025;-89
2022/03/28 04:16:51;;;;;;;8.25;3.38;;;7.00;85.60;;;;;;6310736;22;20003;-89
2022/03/28 04:19:16;;;;;;;9.43;3.70;;;7.10;86.10;;;;;;6309811;22;20003;-89
2022/03/28 04:21:44;;;;;;;8.43;3.45;;;7.10;86.50;;;;;;6311005;22;20002;-89
2022/03/28 04:24:10;;;;;;;7.47;3.17;;;7.10;86.90;;;;;;6309755;22;19999;-89
2022/03/28 04:26:36;;;;;;;13.55;3.78;;;7.00;86.80;;;;;;6310438;22;19999;-89
2022/03/28 04:29:01;;;;;;;9.85;4.18;;;6.90;87.00;;;;;;6310998;22;19999;-89
2022/03/28 04:31:27;;;;;;;8.73;2.97;;;6.90;87.30;;;;;;6338277;22;19994;-89
2022/03/28 04:33:56;;;;;;;9.23;3.30;;;6.70;87.20;;;;;;6311191;22;20042;-90
2022/03/28 04:36:24;;;;;;;8.50;3.75;;;6.60;87.60;;;;;;6310832;22;20424;-90
2022/03/28 04:38:50;;;;;;;7.53;2.88;;;6.50;88.10;;;;;;6307357;22;20006;-90
2022/03/28 04:41:15;;;;;;;6.97;3.17;;;6.40;88.20;;;;;;6307796;22;20727;-89
2022/03/28 04:43:45;;;;;;;12.13;3.50;;;6.40;88.50;;;;;;6309045;22;20476;-90
2022/03/28 04:46:14;;;;;;;13.32;3.30;;;6.50;88.90;;;;;;6307290;22;20048;-91
2022/03/28 04:48:40;;;;;;;7.68;3.30;;;6.50;89.30;;;;;;6310053;22;20181;-89
2022/03/28 04:51:10;;;;;;;7.13;2.92;;;6.40;88.90;;;;;;6310316;22;20030;-90
2022/03/28 04:53:39;;;;;;;11.32;3.42;;;6.50;90.00;;;;;;6309081;22;19999;-89
2022/03/28 04:56:05;;;;;;;9.25;3.22;;;6.40;88.40;;;;;;6309103;22;20007;-90
2022/03/28 04:58:31;;;;;;;6.65;2.90;;;6.50;88.60;;;;;;6309632;22;20042;-90
2022/03/28 05:00:56;;;;;;;8.05;2.85;;;6.50;88.40;;;;;;6309178;22;20052;-89
2022/03/28 05:03:37;;;;;;;8.73;2.85;;;6.50;88.30;;;;;;6309227;22;20090;-90
2022/03/28 05:06:14;;;;;;;9.90;3.38;;;6.50;88.00;;;;;;6308918;22;20010;-91
2022/03/28 05:08:43;;;;;;;6.72;3.38;;;6.50;87.80;;;;;;6309449;22;20038;-90
2022/03/28 05:11:22;;;;;;;7.57;3.03;;;6.50;87.90;;;;;;6310205;22;20026;-91
2022/03/28 05:14:11;;;;;;;12.52;3.60;;;6.60;87.90;;;;;;6307892;22;20002;-91
2022/03/28 05:16:43;;;;;;;9.75;3.38;;;6.50;88.00;;;;;;6308541;22;20087;-90
2022/03/28 05:19:30;;;;;;;;;;;;;;;;;;;;;
2022/03/28 05:22:04;;;;;;;10.20;3.47;;;6.50;88.40;;;;;;6337098;22;20109;-91
2022/03/28 05:24:35;;;;;;;6.80;2.85;;;6.50;88.40;;;;;;6308637;22;20053;-90
2022/03/28 05:27:15;;;;;;;10.38;3.50;;;6.50;88.60;;;;;;6310376;22;20052;-91
2022/03/28 05:29:41;;;;;;;8.50;3.65;;;6.50;88.80;;;;;;6310534;22;20006;-90
2022/03/28 05:32:08;;;;;;;8.35;3.17;;;6.60;89.00;;;;;;6310869;22;19995;-89
2022/03/28 05:34:35;;;;;;;8.90;3.42;;;6.50;89.10;;;;;;6309379;22;20018;-89
2022/03/28 05:37:06;;;;;;;8.07;2.80;;;6.50;89.20;;;;;;6310809;22;20002;-90
2022/03/28 05:39:36;;;;;;;8.18;3.30;;;6.60;89.50;;;;;;6310832;22;20048;-89
2022/03/28 05:42:09;;;;;;;6.75;2.50;;;6.60;89.50;;;;;;6310442;22;20005;-89
2022/03/28 05:44:37;;;;;;;7.25;3.15;;;6.60;89.50;;;;;;6309559;22;20014;-89
2022/03/28 05:47:04;;;;;;;7.38;2.42;;;6.60;89.30;;;;;;6336590;22;20019;-89
2022/03/28 05:49:29;;;;;;;9.05;3.30;;;6.60;89.30;;;;;;6306912;22;20452;-91
2022/03/28 05:51:55;;;;;;;9.80;3.72;;;6.60;89.40;;;;;;6307662;22;20057;-90
2022/03/28 05:54:21;;;;;;;5.72;3.00;;;6.60;89.70;;;;;;6336501;22;20001;-90
2022/03/28 05:56:48;;;;;;;8.00;2.95;;;6.70;89.60;;;;;;6309496;22;20086;-90
2022/03/28 05:59:16;;;;;;;9.93;3.00;;;6.80;89.70;;;;;;6309525;22;20006;-88
2022/03/28 06:01:42;;;;;;;9.23;3.17;;;6.80;90.00;;;;;;6309696;22;20010;-89
2022/03/28 06:04:08;;;;;;;7.57;3.33;;;6.90;89.70;;;;;;6336095;22;19995;-89
2022/03/28 06:06:34;;;;;;;7.35;3.00;;;7.00;89.90;;;;;;6309588;22;20061;-89
2022/03/28 06:09:01;;;;;;;8.15;2.97;;;6.90;89.70;;;;;;6308492;22;20006;-89
2022/03/28 06:11:27;;;;;;;13.25;3.38;;;6.90;89.40;;;;;;6317278;22;20009;-88
2022/03/28 06:14:05;;;;;;;7.15;3.22;;;7.00;89.00;;;;;;6330016;22;20026;-89
2022/03/28 06:16:31;;;;;;;6.05;2.72;;;7.00;89.00;;;;;;6326237;22;20308;-88
2022/03/28 06:19:23;;;;;;;7.65;2.80;;;7.20;89.10;;;;;;6327106;22;20022;-89
2022/03/28 06:23:30;;;;;;;;;;;;;;;;;;;;;
2022/03/28 09:32:27;;;;;;;7.63;3.85;;;15.20;69.10;;;;;;6206584;23;20043;-87
2022/03/28 10:13:52;;;;;;;9.95;4.53;;;17.20;64.70;;;;;;6222383;23;20015;-90
2022/03/28 11:07:23;;;;;;;10.73;4.88;;;19.50;57.70;;;;;;6299577;22;20060;-92
2022/03/28 11:13:48;;;;;;;9.63;4.68;;;19.90;58.20;;;;;;6264089;23;20034;-91
2022/03/28 11:52:34;;;;;;;10.88;5.20;;;21.10;52.70;;;;;;6311037;22;20011;-88
2022/03/28 11:55:02;;;;;;;9.93;4.90;;;21.20;51.90;;;;;;6281538;22;20003;-87
2022/03/28 12:00:24;;;;;;;;;;;21.10;52.10;;;;;;6321231;22;20388;-87
2022/03/28 12:02:55;;;;;;;11.32;5.15;;;21.20;51.30;;;;;;6345181;22;19899;-86
2022/03/28 12:06:03;;;;;;;11.15;5.15;;;21.40;51.40;;;;;;6315889;22;20002;-88
2022/03/28 12:08:38;;;;;;;11.57;5.55;;;21.40;51.40;;;;;;6281188;22;20002;-88
2022/03/28 12:11:03;;;;;;;9.35;4.80;;;21.50;50.70;;;;;;6316709;22;20006;-87
2022/03/28 12:13:50;;;;;;;;;;;;;;;;;;;;;
2022/03/28 12:16:16;;;;;;;9.45;5.00;;;21.50;50.80;;;;;;6342961;22;20019;-86
2022/03/28 12:18:42;;;;;;;10.02;5.35;;;21.50;50.40;;;;;;6343368;22;20122;-87
2022/03/28 12:21:08;;;;;;;11.35;5.72;;;21.50;50.20;;;;;;6314357;22;20010;-88
2022/03/28 12:23:36;;;;;;;13.10;5.45;;;21.50;50.00;;;;;;6342578;22;20318;-87
2022/03/28 12:26:04;;;;;;;12.35;5.13;;;21.50;50.10;;;;;;6316117;22;20013;-86
2022/03/28 12:28:35;;;;;;;13.25;6.07;;;21.60;51.00;;;;;;6316413;22;20029;-86
2022/03/28 12:31:03;;;;;;;9.60;5.22;;;21.60;49.90;;;;;;6315267;22;19998;-87
2022/03/28 12:33:35;;;;;;;9.98;5.40;;;21.70;50.10;;;;;;6314612;22;20013;-87
2022/03/28 12:36:08;;;;;;;10.93;5.07;;;21.90;49.90;;;;;;6313718;22;20338;-87
2022/03/28 12:38:38;;;;;;;12.02;5.88;;;22.00;50.20;;;;;;6318591;22;20003;-87
2022/03/28 12:41:13;;;;;;;12.50;6.03;;;21.90;49.80;;;;;;6339249;22;20383;-88
2022/03/28 12:43:49;;;;;;;11.43;5.47;;;22.10;49.70;;;;;;6340846;22;19999;-88
2022/03/28 12:46:18;;;;;;;12.85;5.95;;;22.10;49.50;;;;;;6313701;22;20394;-87
2022/03/28 12:48:46;;;;;;;12.07;6.28;;;22.00;49.80;;;;;;6314461;22;19999;-87
2022/03/28 12:51:31;;;;;;;14.27;5.78;;;22.00;50.30;;;;;;6345481;22;20003;-87
2022/03/28 12:54:04;;;;;;;11.40;6.07;;;21.90;50.60;;;;;;6342268;22;20003;-87
2022/03/28 12:56:50;;;;;;;11.98;5.93;;;22.20;50.60;;;;;;6315830;22;20064;-87
2022/03/28 12:59:24;;;;;;;11.75;6.07;;;22.30;50.30;;;;;;6319826;22;20094;-87
2022/03/28 13:01:51;;;;;;;11.20;5.50;;;22.20;49.80;;;;;;6322592;22;20022;-87
2022/03/28 13:04:23;;;;;;;10.35;4.55;;;22.10;50.20;;;;;;6351513;22;20319;-88
2022/03/28 13:07:02;;;;;;;12.27;5.60;;;22.20;50.60;;;;;;6322639;22;19999;-87
2022/03/28 13:09:28;;;;;;;10.25;5.20;;;22.20;50.30;;;;;;6352705;22;19999;-88
2022/03/28 13:12:06;;;;;;;13.10;5.82;;;22.50;50.60;;;;;;6330540;22;19997;-87
2022/03/28 13:14:34;;;;;;;15.73;6.13;;;22.70;50.80;;;;;;6322565;22;20340;-87
2022/03/28 13:17:07;;;;;;;12.93;5.57;;;22.70;51.60;;;;;;6321630;22;20005;-87
2022/03/28 13:19:32;;;;;;;12.00;5.45;;;23.00;50.90;;;;;;6355005;22;19995;-88
2022/03/28 13:21:58;;;;;;;12.02;5.93;;;23.00;50.30;;;;;;6334971;22;20126;-87
2022/03/28 13:24:28;;;;;;;10.77;5.18;;;22.80;50.00;;;;;;6334187;22;20093;-86
2022/03/28 13:28:01;;;;;;;12.57;5.20;;;22.60;50.90;;;;;;6325840;22;20033;-86
2022/03/28 13:29:40;;;;;;;10.73;4.70;;;22.50;50.80;;;;;;6352732;22;20432;-86
2022/03/28 13:32:06;;;;;;;9.23;4.57;;;22.50;51.00;;;;;;6352436;22;20030;-86
2022/03/28 13:34:31;;;;;;;10.00;4.85;;;22.60;50.60;;;;;;6350554;22;20041;-85
2022/03/28 13:36:58;;;;;;;11.30;4.32;;;23.00;50.80;;;;;;6351960;22;20007;-87
2022/03/28 13:39:24;;;;;;;10.25;4.82;;;23.40;50.20;;;;;;6349225;22;19995;-86
2022/03/28 13:41:50;;;;;;;8.60;4.22;;;23.30;49.30;;;;;;6351220;22;20002;-87
2022/03/28 13:44:17;;;;;;;10.05;4.63;;;23.30;49.30;;;;;;6321308;22;20152;-86
2022/03/28 13:46:43;;;;;;;10.95;4.65;;;23.50;48.60;;;;;;6323512;22;20352;-86
2022/03/28 13:49:09;;;;;;;10.40;4.72;;;23.90;48.70;;;;;;6324447;22;20003;-86
2022/03/28 13:51:35;;;;;;;9.95;4.97;;;23.80;48.50;;;;;;6323930;22;20010;-85
2022/03/28 13:54:01;;;;;;;10.48;4.35;;;23.60;48.20;;;;;;6323042;22;19999;-87
2022/03/28 13:56:28;;;;;;;10.55;4.65;;;23.70;49.20;;;;;;6350441;22;19994;-86
2022/03/28 13:58:55;;;;;;;10.52;5.20;;;23.90;48.20;;;;;;6324216;22;20009;-86
2022/03/28 14:01:27;;;;;;;12.55;4.35;;;23.90;48.00;;;;;;6321921;22;20322;-86
2022/03/28 14:03:56;;;;;;;9.82;4.15;;;24.00;48.00;;;;;;6349240;22;19998;-87
2022/03/28 14:06:25;;;;;;;9.30;3.53;;;24.10;47.70;;;;;;6349913;22;19999;-86
2022/03/28 14:08:52;;;;;;;9.50;3.92;;;24.10;47.60;;;;;;6350333;22;20010;-86
2022/03/28 14:11:17;;;;;;;10.25;4.15;;;24.40;46.60;;;;;;6316100;22;20032;-86
2022/03/28 14:13:44;;;;;;;9.45;4.18;;;24.40;46.70;;;;;;6315850;22;19999;-86
2022/03/28 14:16:19;;;;;;;;;;;;;;;;;;;;;
2022/03/28 14:18:48;;;;;;;8.13;3.83;;;24.60;46.70;;;;;;6339637;22;20070;-87
2022/03/28 14:21:15;;;;;;;7.75;3.83;;;24.70;45.90;;;;;;6338610;22;20022;-86
2022/03/28 14:24:06;;;;;;;9.38;4.10;;;24.90;45.10;;;;;;6338697;22;19999;-86
2022/03/28 14:26:37;;;;;;;9.15;3.70;;;24.50;45.40;;;;;;6340349;22;20011;-86
2022/03/28 14:29:03;;;;;;;8.98;3.50;;;24.30;45.10;;;;;;6313546;22;20009;-86
2022/03/28 14:31:30;;;;;;;8.35;3.70;;;24.40;45.10;;;;;;6337569;22;20002;-86
2022/03/28 14:33:57;;;;;;;6.05;3.63;;;24.30;45.00;;;;;;6341114;22;20052;-86
2022/03/28 14:36:24;;;;;;;8.18;3.70;;;24.50;44.90;;;;;;6316060;22;20446;-86
2022/03/28 14:38:56;;;;;;;7.03;3.40;;;24.40;44.70;;;;;;6339450;22;20002;-86
2022/03/28 14:41:42;;;;;;;;;;;;;;;;;;;;;
2022/03/28 14:44:11;;;;;;;8.40;3.47;;;24.40;44.20;;;;;;6341223;22;20534;-86
2022/03/28 14:49:21;;;;;;;7.03;3.60;;;24.60;44.00;;;;;;6340322;22;20025;-86
2022/03/28 14:51:47;;;;;;;8.23;3.10;;;24.80;44.20;;;;;;6340348;22;20011;-87
2022/03/28 14:54:21;;;;;;;7.75;4.15;;;25.10;43.80;;;;;;6331697;22;20003;-86
2022/03/28 14:56:47;;;;;;;7.32;3.67;;;25.20;43.60;;;;;;6309800;22;20003;-85
2022/03/28 14:59:12;;;;;;;8.70;3.67;;;24.80;42.80;;;;;;6310374;22;20393;-86
2022/03/28 15:01:43;;;;;;;6.93;3.55;;;24.80;43.30;;;;;;6335470;22;20013;-86
2022/03/28 15:04:13;;;;;;;6.88;3.67;;;24.70;42.10;;;;;;6309392;22;20007;-85
2022/03/28 15:06:47;;;;;;;7.22;3.80;;;24.80;42.60;;;;;;6312673;22;20010;-86
2022/03/28 15:09:28;;;;;;;8.07;3.42;;;24.90;42.40;;;;;;6311445;22;20007;-86
2022/03/28 15:11:55;;;;;;;7.50;3.97;;;24.90;41.90;;;;;;6340123;22;20006;-86
2022/03/28 15:14:23;;;;;;;6.75;3.05;;;24.80;42.00;;;;;;6312332;22;20003;-86
2022/03/28 15:16:49;;;;;;;7.10;3.45;;;24.40;42.10;;;;;;6335559;22;19995;-86
2022/03/28 15:19:15;;;;;;;6.28;3.20;;;24.00;42.70;;;;;;6340346;22;20009;-86
2022/03/28 15:21:41;;;;;;;6.88;3.35;;;23.80;42.70;;;;;;6339625;22;20002;-86
2022/03/28 15:24:07;;;;;;;5.97;3.13;;;23.70;42.80;;;;;;6309351;22;20014;-86
2022/03/28 15:26:34;;;;;;;7.22;3.25;;;23.50;43.10;;;;;;6337886;22;20003;-86
2022/03/28 15:29:00;;;;;;;6.40;3.60;;;23.00;42.90;;;;;;6320633;22;20021;-87
2022/03/28 15:31:33;;;;;;;7.05;3.58;;;22.80;43.70;;;;;;6349229;22;20003;-86
2022/03/28 15:34:03;;;;;;;6.88;3.33;;;22.30;44.20;;;;;;6324178;22;19999;-86
2022/03/28 15:36:32;;;;;;;6.82;3.03;;;21.90;44.00;;;;;;6323740;22;20003;-86
2022/03/28 15:39:00;;;;;;;5.90;3.05;;;21.80;44.50;;;;;;6325930;22;20279;-86
2022/03/28 15:41:27;;;;;;;6.95;3.10;;;21.60;44.40;;;;;;6353795;22;20063;-87
2022/03/28 15:43:54;;;;;;;7.28;3.30;;;21.50;44.50;;;;;;6325553;22;20003;-87
2022/03/28 15:46:20;;;;;;;6.43;3.20;;;21.20;44.60;;;;;;6323934;22;20508;-87
2022/03/28 15:48:46;;;;;;;5.72;2.92;;;21.00;44.40;;;;;;6354360;22;20011;-87
2022/03/28 15:51:13;;;;;;;5.97;2.90;;;20.70;44.90;;;;;;6326330;22;20569;-87
2022/03/28 15:53:39;;;;;;;6.18;2.53;;;20.60;45.20;;;;;;6325710;22;20052;-87
2022/03/28 15:56:05;;;;;;;6.75;2.92;;;20.30;45.50;;;;;;6325642;22;20030;-87
2022/03/28 15:58:31;;;;;;;10.02;3.15;;;20.30;45.80;;;;;;6320928;22;20345;-87
2022/03/28 16:01:36;;;;;;;6.40;3.25;;;20.10;46.60;;;;;;6352859;22;19994;-86
2022/03/28 16:03:44;;;;;;;5.38;2.60;;;20.20;46.00;;;;;;6352572;22;20007;-87
2022/03/28 16:06:13;;;;;;;7.55;2.85;;;20.10;46.00;;;;;;6353123;22;20006;-87
2022/03/28 16:08:38;;;;;;;8.05;2.72;;;20.00;46.10;;;;;;6323707;22;20374;-87
2022/03/28 16:11:04;;;;;;;6.43;3.10;;;20.00;46.30;;;;;;6352940;22;20009;-87
2022/03/28 16:13:31;;;;;;;8.43;3.13;;;20.00;46.00;;;;;;6298896;22;20022;-86
2022/03/28 16:15:57;;;;;;;5.13;2.72;;;20.10;46.10;;;;;;6352677;22;19995;-86
2022/03/28 16:18:24;;;;;;;6.85;2.85;;;20.20;46.10;;;;;;6355500;22;20014;-87
2022/03/28 16:20:49;;;;;;;6.97;2.90;;;20.00;46.10;;;;;;6327643;22;20036;-87
2022/03/28 16:23:18;;;;;;;7.32;2.50;;;20.00;46.00;;;;;;6351766;22;20007;-86
2022/03/28 16:25:44;;;;;;;5.35;2.58;;;20.00;46.10;;;;;;6326493;22;20009;-86
2022/03/28 16:28:09;;;;;;;6.72;3.25;;;19.90;45.90;;;;;;6327486;22;20029;-87
2022/03/28 16:30:35;;;;;;;5.88;2.78;;;20.10;46.40;;;;;;6353510;22;20040;-86
2022/03/28 16:33:01;;;;;;;5.53;2.60;;;19.70;46.50;;;;;;6354427;22;19994;-86
2022/03/28 16:35:26;;;;;;;11.63;2.40;;;19.70;46.60;;;;;;6354225;22;19999;-87
2022/03/28 16:37:52;;;;;;;7.90;2.47;;;19.50;46.30;;;;;;6325331;22;20007;-87
2022/03/28 16:40:17;;;;;;;4.32;2.20;;;19.40;46.70;;;;;;6355318;22;20003;-87
2022/03/28 16:42:43;;;;;;;5.60;2.45;;;19.30;46.30;;;;;;6327756;22;20014;-86
2022/03/28 16:45:09;;;;;;;5.40;2.63;;;19.20;46.70;;;;;;6355124;22;20013;-87
2022/03/28 16:47:36;;;;;;;6.03;2.40;;;19.20;46.70;;;;;;6342126;22;20034;-88
2022/03/28 16:50:02;;;;;;;5.05;2.40;;;19.00;46.60;;;;;;6307154;22;20007;-88
2022/03/28 16:52:32;;;;;;;5.40;2.50;;;19.00;46.90;;;;;;6306246;22;20132;-87
2022/03/28 16:54:58;;;;;;;6.53;2.97;;;19.00;47.30;;;;;;6335116;22;20371;-87
2022/03/28 16:57:25;;;;;;;5.82;2.42;;;18.90;47.10;;;;;;6335042;22;20048;-87
2022/03/28 16:59:51;;;;;;;4.10;2.08;;;18.90;47.30;;;;;;6307576;22;20038;-87
2022/03/28 17:02:17;;;;;;;5.20;2.13;;;18.90;47.60;;;;;;6335753;22;20127;-87
2022/03/28 17:04:43;;;;;;;5.60;2.30;;;18.70;47.50;;;;;;6335054;22;19998;-87
2022/03/28 17:07:08;;;;;;;4.32;1.90;;;18.70;47.60;;;;;;6308007;22;20387;-87
2022/03/28 17:09:34;;;;;;;4.30;2.15;;;18.60;47.90;;;;;;6309413;22;20380;-87
2022/03/28 17:12:00;;;;;;;5.28;1.80;;;18.50;48.10;;;;;;6308452;22;20003;-87
2022/03/28 17:14:26;;;;;;;5.20;2.00;;;18.50;48.50;;;;;;6305643;22;20294;-87
2022/03/28 17:16:51;;;;;;;5.53;2.35;;;18.30;48.50;;;;;;6307780;22;20429;-87
2022/03/28 17:19:17;;;;;;;4.30;2.00;;;18.60;48.80;;;;;;6335496;22;20013;-86
2022/03/28 17:21:48;;;;;;;4.35;1.92;;;18.40;49.60;;;;;;6319359;22;20078;-88
2022/03/28 17:24:16;;;;;;;4.45;2.10;;;18.20;49.40;;;;;;6323553;22;20098;-86
2022/03/28 17:26:42;;;;;;;7.18;2.78;;;18.00;50.00;;;;;;6323882;22;20014;-86
2022/03/28 17:29:09;;;;;;;5.25;2.10;;;17.90;49.90;;;;;;6337645;22;19999;-87
2022/03/28 17:31:40;;;;;;;5.15;2.00;;;17.80;50.10;;;;;;6345370;22;19999;-86
2022/03/28 17:34:10;;;;;;;6.75;2.33;;;17.70;50.40;;;;;;6349627;22;20012;-89
2022/03/28 17:36:36;;;;;;;5.32;2.25;;;17.50;50.30;;;;;;6320501;22;20010;-88
2022/03/28 17:39:03;;;;;;;6.95;2.30;;;17.70;50.70;;;;;;6342892;22;20066;-86
2022/03/28 17:41:30;;;;;;;4.05;1.90;;;17.30;50.10;;;;;;6340497;22;20002;-87
2022/03/28 17:43:58;;;;;;;5.10;1.85;;;17.30;49.90;;;;;;6339750;22;20026;-87
2022/03/28 17:46:25;;;;;;;5.80;2.33;;;17.20;49.90;;;;;;6340392;22;20095;-87
2022/03/28 17:48:54;;;;;;;5.07;2.30;;;17.10;50.00;;;;;;6340703;22;20059;-87
2022/03/28 17:51:29;;;;;;;4.70;1.90;;;17.10;50.00;;;;;;6308292;22;20013;-86
2022/03/28 17:53:55;;;;;;;4.05;1.70;;;16.80;50.10;;;;;;6338816;22;20002;-87
2022/03/28 17:56:42;;;;;;;3.67;1.52;;;16.70;50.20;;;;;;6313030;22;20066;-87
2022/03/28 18:00:14;;;;;;;5.13;2.60;;;16.70;50.10;;;;;;6308394;22;20059;-87
2022/03/28 18:03:14;;;;;;;3.28;1.70;;;16.60;50.10;;;;;;6162250;22;20429;-86
2022/03/28 18:09:24;;;;;;;4.68;2.08;;;16.40;50.20;;;;;;6333862;22;20056;-86
2022/03/28 18:12:48;;;;;;;4.72;2.03;;;16.30;50.60;;;;;;6307307;22;20105;-86
2022/03/28 18:15:55;;;;;;;;;;;;;;;;;;;;;
2022/03/28 18:18:52;;;;;;;3.67;1.73;;;16.10;51.10;;;;;;6300281;22;20083;-86
2022/03/28 18:21:40;;;;;;;4.13;1.88;;;16.00;51.10;;;;;;6271054;22;20010;-86
2022/03/28 18:28:09;;;;;;;4.32;1.42;;;15.90;51.70;;;;;;6297188;22;20007;-86
2022/03/28 18:37:53;;;;;;;5.22;2.15;;;15.40;52.80;;;;;;6347366;22;19999;-87
2022/03/28 18:41:17;;;;;;;4.15;1.75;;;15.40;53.60;;;;;;6320046;22;20003;-86
2022/03/28 18:44:20;;;;;;;;;;;;;;;;;;;;;
2022/03/28 18:47:28;;;;;;;3.70;1.88;;;15.10;54.00;;;;;;6347903;22;19998;-86
2022/03/28 18:50:26;;;;;;;;;;;;;;;;;;;;;
2022/03/28 18:53:37;;;;;;;4.18;2.05;;;14.70;54.60;;;;;;6347135;22;20046;-85